Time;durP1;ratioP1;P1;durP2;ratioP2;P2;SDS_P1;SDS_P2;PMS_P1;PMS_P2;Temp;Humidity;BMP_temperature;BMP_pressure;BME280_temperature;BME280_humidity;BME280_pressure;Samples;Min_cycle;Max_cycle;Signal;HPM_P1;HPM_P2
2023/08/16 00:01:20;;;;;;;7.78;5.32;;;;;;;17.46;91.82;101821.22;6181768;23;20012;-59
2023/08/16 00:03:45;;;;;;;9.07;5.00;;;;;;;17.51;90.62;101818.44;6181840;23;20028;-59
2023/08/16 00:06:12;;;;;;;10.55;5.75;;;;;;;17.46;92.13;101814.13;6156214;23;20013;-59
2023/08/16 00:08:38;;;;;;;6.57;5.07;;;;;;;17.43;92.16;101814.22;6180070;23;20158;-59
2023/08/16 00:11:04;;;;;;;9.02;5.60;;;;;;;17.45;91.87;101817.66;6181802;23;20281;-59
2023/08/16 00:13:31;;;;;;;9.32;5.25;;;;;;;17.42;91.73;101822.19;6180857;23;20020;-59
2023/08/16 00:15:56;;;;;;;6.43;4.93;;;;;;;17.57;89.94;101824.47;6181307;23;20008;-59
2023/08/16 00:18:22;;;;;;;9.15;6.00;;;;;;;17.49;90.94;101827.28;6206482;23;20380;-59
2023/08/16 00:20:47;;;;;;;8.43;6.68;;;;;;;17.52;90.89;101822.84;6156405;23;20339;-59
2023/08/16 00:23:12;;;;;;;9.75;6.53;;;;;;;17.49;90.87;101829.09;6156739;23;20009;-59
2023/08/16 00:25:39;;;;;;;13.75;6.25;;;;;;;17.42;90.73;101827.50;6181980;23;20070;-59
2023/08/16 00:28:05;;;;;;;9.85;5.82;;;;;;;17.39;91.66;101832.88;6156326;23;20013;-59
2023/08/16 00:30:30;;;;;;;8.63;6.72;;;;;;;17.43;92.05;101829.25;6181509;23;20364;-59
2023/08/16 00:32:55;;;;;;;7.22;6.53;;;;;;;17.35;92.74;101829.41;6156955;23;20009;-59
2023/08/16 00:35:21;;;;;;;9.38;6.05;;;;;;;17.33;93.16;101833.88;6181155;23;20005;-60
2023/08/16 00:37:46;;;;;;;7.78;6.13;;;;;;;17.47;91.93;101828.25;6181618;23;20231;-59
2023/08/16 00:40:12;;;;;;;8.75;6.03;;;;;;;17.46;92.25;101829.16;6156844;23;20016;-59
2023/08/16 00:42:37;;;;;;;7.07;5.80;;;;;;;17.41;93.24;101821.34;6156558;23;20473;-59
2023/08/16 00:45:06;;;;;;;8.35;5.75;;;;;;;17.34;93.76;101833.00;6156755;23;20457;-59
2023/08/16 00:47:32;;;;;;;7.80;6.63;;;;;;;17.30;92.11;101840.13;6206274;23;20415;-59
2023/08/16 00:49:57;;;;;;;6.55;5.88;;;;;;;17.36;92.26;101838.25;6180810;23;20009;-60
2023/08/16 00:52:23;;;;;;;9.13;6.88;;;;;;;17.19;93.44;101851.88;6156739;23;20017;-59
2023/08/16 00:54:49;;;;;;;8.57;6.82;;;;;;;17.29;93.51;101848.97;6181523;23;20457;-59
2023/08/16 00:57:14;;;;;;;8.45;6.78;;;;;;;17.27;93.51;101845.50;6180673;23;20013;-59
2023/08/16 00:59:44;;;;;;;8.52;6.72;;;;;;;17.30;93.71;101844.56;6181577;23;20039;-59
2023/08/16 01:02:10;;;;;;;9.32;6.47;;;;;;;17.34;93.85;101842.69;6180984;23;20009;-59
2023/08/16 01:04:36;;;;;;;9.60;6.85;;;;;;;17.35;93.64;101842.66;6180670;23;20005;-59
2023/08/16 01:07:01;;;;;;;8.10;6.60;;;;;;;17.47;91.78;101841.50;6181046;23;20079;-59
2023/08/16 01:09:27;;;;;;;8.57;6.82;;;;;;;17.37;92.52;101839.97;6181503;23;20029;-59
2023/08/16 01:12:02;;;;;;;8.48;7.15;;;;;;;17.40;92.83;101846.09;6155756;23;20060;-59
2023/08/16 01:14:54;;;;;;;7.18;6.35;;;;;;;17.46;92.99;101845.06;6183031;23;20008;-59
2023/08/16 01:17:24;;;;;;;9.93;7.05;;;;;;;17.44;94.35;101850.41;6207334;23;20021;-59
2023/08/16 01:19:53;;;;;;;8.27;6.72;;;;;;;17.44;93.81;101849.50;6186275;23;20032;-59
2023/08/16 01:22:42;;;;;;;9.32;7.32;;;;;;;17.49;92.99;101853.78;6186218;23;20020;-59
2023/08/16 01:25:08;;;;;;;10.00;7.28;;;;;;;17.46;93.22;101872.41;6174668;23;20019;-59
2023/08/16 01:27:35;;;;;;;9.80;7.50;;;;;;;17.50;92.48;101865.28;6185540;23;20443;-59
2023/08/16 01:30:03;;;;;;;8.77;7.00;;;;;;;17.42;92.83;101869.88;6188310;23;20415;-59
2023/08/16 01:32:29;;;;;;;9.52;7.30;;;;;;;17.42;93.27;101864.59;6188052;23;20092;-59
2023/08/16 01:34:54;;;;;;;9.23;7.70;;;;;;;17.53;92.74;101875.81;6163308;23;20036;-59
2023/08/16 01:37:19;;;;;;;7.97;7.18;;;;;;;17.54;92.98;101864.31;6163196;23;20012;-59
2023/08/16 01:39:49;;;;;;;8.05;7.25;;;;;;;17.49;93.45;101867.03;6163533;23;20039;-59
2023/08/16 01:42:17;;;;;;;9.18;7.32;;;;;;;17.44;93.75;101868.94;6187684;23;20310;-59
2023/08/16 01:44:44;;;;;;;11.45;7.80;;;;;;;17.36;92.74;101875.34;6187701;23;20004;-59
2023/08/16 01:47:13;;;;;;;10.50;7.88;;;;;;;17.47;92.68;101878.63;6187907;23;20008;-59
2023/08/16 01:49:41;;;;;;;10.90;8.13;;;;;;;17.45;92.13;101877.75;6188072;23;20067;-59
2023/08/16 01:52:07;;;;;;;10.00;8.55;;;;;;;17.37;92.58;101882.34;6187690;23;20004;-59
2023/08/16 01:54:33;;;;;;;9.63;7.78;;;;;;;17.40;92.76;101882.31;6163236;23;20095;-59
2023/08/16 01:56:58;;;;;;;10.77;7.95;;;;;;;17.38;93.93;101878.81;6162479;23;20032;-59
2023/08/16 01:59:23;;;;;;;8.55;7.60;;;;;;;17.44;93.49;101868.94;6187870;23;20359;-59
2023/08/16 02:01:49;;;;;;;8.93;7.40;;;;;;;17.49;93.40;101872.34;6161893;23;20100;-60
2023/08/16 02:04:17;;;;;;;9.10;7.80;;;;;;;17.49;93.37;101871.47;6163315;23;20012;-59
2023/08/16 02:06:44;;;;;;;10.02;8.18;;;;;;;17.44;93.95;101883.94;6187343;23;20013;-59
2023/08/16 02:09:09;;;;;;;8.48;7.38;;;;;;;17.36;93.76;101880.63;6162902;23;20023;-59
2023/08/16 02:11:34;;;;;;;9.45;6.60;;;;;;;17.48;92.62;101888.28;6161604;23;20409;-60
2023/08/16 02:14:00;;;;;;;10.57;6.97;;;;;;;17.36;93.47;101885.94;6187775;23;20347;-59
2023/08/16 02:16:26;;;;;;;9.48;6.38;;;;;;;17.41;92.40;101879.63;6187615;23;20427;-59
2023/08/16 02:18:52;;;;;;;9.93;6.85;;;;;;;17.39;92.35;101883.22;6182961;23;20443;-60
2023/08/16 02:21:17;;;;;;;9.23;6.97;;;;;;;17.36;92.09;101880.63;6182309;23;20016;-60
2023/08/16 02:23:43;;;;;;;7.93;6.85;;;;;;;17.33;91.85;101880.72;6183092;23;20647;-60
2023/08/16 02:26:08;;;;;;;10.82;6.85;;;;;;;17.36;91.37;101881.50;6183114;23;20013;-59
2023/08/16 02:28:35;;;;;;;8.80;6.50;;;;;;;17.30;91.85;101876.34;6180882;23;20013;-59
2023/08/16 02:31:05;;;;;;;13.63;7.28;;;;;;;17.29;91.44;101872.81;6183099;23;20022;-60
2023/08/16 02:33:31;;;;;;;9.68;6.50;;;;;;;17.25;91.50;101868.50;6183062;23;20343;-60
2023/08/16 02:35:57;;;;;;;8.73;6.72;;;;;;;17.16;91.43;101867.84;6182591;23;20116;-59
2023/08/16 02:38:22;;;;;;;8.48;6.40;;;;;;;17.12;91.40;101878.53;6157677;23;20074;-59
2023/08/16 02:40:48;;;;;;;7.40;5.85;;;;;;;17.14;91.30;101881.13;6182328;23;20021;-60
2023/08/16 02:43:13;;;;;;;6.95;6.15;;;;;;;17.14;91.03;101883.78;6182028;23;20008;-60
2023/08/16 02:45:40;;;;;;;7.60;6.53;;;;;;;17.11;91.16;101871.47;6182841;23;20407;-60
2023/08/16 02:48:06;;;;;;;10.32;7.28;;;;;;;17.09;91.05;101883.00;6157855;23;20092;-60
2023/08/16 02:50:31;;;;;;;9.65;6.43;;;;;;;17.10;91.21;101882.97;6157584;23;20119;-59
2023/08/16 02:52:57;;;;;;;8.68;6.70;;;;;;;17.12;90.73;101872.34;6157606;23;20013;-60
2023/08/16 02:55:22;;;;;;;7.88;6.85;;;;;;;17.08;91.05;101868.00;6182600;23;20012;-60
2023/08/16 02:57:48;;;;;;;7.63;6.43;;;;;;;17.07;91.21;101855.69;6181831;23;20005;-60
2023/08/16 03:00:14;;;;;;;8.95;6.50;;;;;;;17.03;91.35;101857.53;6157501;23;20009;-60
2023/08/16 03:02:39;;;;;;;7.32;6.50;;;;;;;16.90;92.26;101851.63;6181601;23;20096;-60
2023/08/16 03:05:06;;;;;;;8.00;6.95;;;;;;;16.82;92.18;101858.84;6157148;23;20037;-59
2023/08/16 03:07:33;;;;;;;9.23;7.20;;;;;;;16.93;92.45;101871.88;6181062;23;20067;-59
2023/08/16 03:09:58;;;;;;;11.27;6.82;;;;;;;16.96;91.94;101867.38;6157033;23;20013;-60
2023/08/16 03:12:24;;;;;;;14.07;7.38;;;;;;;17.00;91.69;101869.97;6181623;23;20017;-60
2023/08/16 03:14:49;;;;;;;9.20;6.85;;;;;;;16.95;92.08;101865.66;6157903;23;20084;-59
2023/08/16 03:17:15;;;;;;;9.95;7.75;;;;;;;16.91;92.54;101869.28;6157657;23;20359;-59
2023/08/16 03:19:40;;;;;;;10.95;7.45;;;;;;;16.96;92.24;101872.69;6187288;23;20011;-60
2023/08/16 03:22:06;;;;;;;8.40;7.22;;;;;;;16.94;92.59;101873.63;6162193;23;20019;-59
2023/08/16 03:24:32;;;;;;;8.90;7.32;;;;;;;16.88;92.88;101879.94;6162232;23;20127;-60
2023/08/16 03:26:58;;;;;;;9.23;7.63;;;;;;;16.87;92.39;101875.50;6212214;23;20008;-60
2023/08/16 03:29:24;;;;;;;8.27;7.03;;;;;;;16.89;92.27;101868.41;6187085;23;20087;-60
2023/08/16 03:31:49;;;;;;;8.15;6.97;;;;;;;16.91;93.10;101871.03;6187187;23;20040;-60
2023/08/16 03:34:15;;;;;;;10.05;7.25;;;;;;;16.80;91.65;101888.00;6162374;23;20008;-59
2023/08/16 03:36:41;;;;;;;9.80;7.13;;;;;;;16.82;91.97;101885.31;6185985;23;20038;-59
2023/08/16 03:39:06;;;;;;;10.05;7.10;;;;;;;16.87;91.80;101885.22;6186930;23;20004;-60
2023/08/16 03:41:33;;;;;;;9.82;7.30;;;;;;;16.77;91.87;101882.75;6186541;23;20019;-59
2023/08/16 03:43:59;;;;;;;10.68;6.60;;;;;;;16.90;91.98;101877.25;6187340;23;20008;-59
2023/08/16 03:46:26;;;;;;;9.73;6.90;;;;;;;16.73;94.02;101873.13;6162277;23;20013;-59
2023/08/16 03:48:51;;;;;;;10.18;7.38;;;;;;;16.66;93.97;101887.41;6212061;23;20031;-59
2023/08/16 03:51:17;;;;;;;8.95;7.03;;;;;;;16.67;93.42;101889.16;6186379;23;20028;-59
2023/08/16 03:53:42;;;;;;;8.40;7.35;;;;;;;16.63;93.55;101884.81;6186613;23;20095;-59
2023/08/16 03:56:08;;;;;;;10.50;6.95;;;;;;;16.70;93.31;101881.16;6187069;23;20397;-59
2023/08/16 03:58:33;;;;;;;9.52;7.78;;;;;;;16.67;94.61;101881.22;6186220;23;20004;-59
2023/08/16 04:00:58;;;;;;;10.20;6.85;;;;;;;16.73;93.65;101885.50;6186658;23;20039;-59
2023/08/16 04:03:24;;;;;;;9.57;7.13;;;;;;;16.74;93.54;101889.91;6187033;23;20051;-59
2023/08/16 04:05:49;;;;;;;9.77;7.43;;;;;;;16.69;94.70;101905.00;6161910;23;20100;-60
2023/08/16 04:08:15;;;;;;;9.05;6.95;;;;;;;16.70;94.04;101899.69;6186965;23;20009;-59
2023/08/16 04:10:41;;;;;;;8.07;6.85;;;;;;;16.82;93.29;101890.59;6161926;23;20019;-59
2023/08/16 04:13:09;;;;;;;8.60;6.65;;;;;;;16.83;92.96;101891.50;6161387;23;20016;-59
2023/08/16 04:15:36;;;;;;;8.88;6.97;;;;;;;16.82;93.25;101890.59;6162032;23;20016;-60
2023/08/16 04:18:02;;;;;;;7.80;6.40;;;;;;;16.78;93.59;101892.47;6187004;23;20114;-60
2023/08/16 04:20:28;;;;;;;8.88;6.50;;;;;;;16.74;93.84;101897.84;6161917;23;20017;-59
2023/08/16 04:22:54;;;;;;;7.82;6.43;;;;;;;16.80;93.40;101893.28;6186799;23;20023;-59
2023/08/16 04:25:19;;;;;;;8.25;6.07;;;;;;;16.80;93.53;101888.00;6186582;23;20023;-60
2023/08/16 04:27:45;;;;;;;8.20;6.40;;;;;;;16.80;92.88;101893.28;6161192;23;20017;-60
2023/08/16 04:30:10;;;;;;;9.77;5.80;;;;;;;16.79;92.41;101901.25;6186854;23;20066;-60
2023/08/16 04:32:36;;;;;;;7.10;6.15;;;;;;;16.78;92.90;101903.03;6186386;23;20055;-60
2023/08/16 04:35:04;;;;;;;10.00;6.55;;;;;;;16.76;93.28;101906.63;6184913;23;20013;-60
2023/08/16 04:37:29;;;;;;;8.18;6.30;;;;;;;16.83;92.83;101904.72;6185571;23;20439;-60
2023/08/16 04:39:55;;;;;;;9.55;6.22;;;;;;;16.89;92.68;101907.28;6162236;23;20135;-60
2023/08/16 04:42:21;;;;;;;8.32;6.07;;;;;;;16.86;92.48;101913.47;6185985;23;20063;-60
2023/08/16 04:44:47;;;;;;;7.28;6.53;;;;;;;16.83;93.16;101918.81;6186073;23;20402;-60
2023/08/16 04:47:12;;;;;;;9.27;6.32;;;;;;;16.88;92.90;101918.75;6161692;23;20020;-60
2023/08/16 04:49:38;;;;;;;9.07;6.57;;;;;;;16.89;92.54;101926.66;6162085;23;20027;-60
2023/08/16 04:52:03;;;;;;;6.15;5.55;;;;;;;16.90;92.26;101915.19;6161006;23;20342;-59
2023/08/16 04:54:29;;;;;;;10.55;6.63;;;;;;;16.88;93.26;101917.00;6161957;23;20016;-59
2023/08/16 04:56:55;;;;;;;8.18;6.47;;;;;;;16.83;92.65;101918.81;6159697;23;20013;-60
2023/08/16 04:59:21;;;;;;;8.73;6.38;;;;;;;16.86;93.42;101913.47;6185968;23;20009;-60
2023/08/16 05:01:46;;;;;;;8.68;6.50;;;;;;;16.74;94.02;101916.38;6160424;23;20020;-60
2023/08/16 05:04:12;;;;;;;7.55;6.43;;;;;;;16.76;94.33;101920.72;6161280;23;20378;-60
2023/08/16 05:06:37;;;;;;;7.30;5.65;;;;;;;16.76;92.02;101927.78;6184890;23;20047;-60
2023/08/16 05:09:04;;;;;;;10.52;6.30;;;;;;;16.73;93.05;101928.72;6160054;23;20013;-60
2023/08/16 05:11:30;;;;;;;8.32;5.82;;;;;;;16.60;92.14;101925.44;6184420;23;20017;-60
2023/08/16 05:13:55;;;;;;;7.40;5.32;;;;;;;16.63;91.96;101928.03;6212289;23;20106;-60
2023/08/16 05:16:22;;;;;;;7.90;5.13;;;;;;;16.47;92.86;101920.44;6185071;23;20016;-60
2023/08/16 05:18:47;;;;;;;8.23;5.10;;;;;;;16.56;92.50;101922.91;6185282;23;20090;-60
2023/08/16 05:21:13;;;;;;;8.45;5.05;;;;;;;16.63;91.97;101921.88;6185702;23;20107;-59
2023/08/16 05:23:38;;;;;;;8.40;5.35;;;;;;;16.62;92.21;101926.31;6161761;23;20032;-60
2023/08/16 05:26:06;;;;;;;10.55;5.60;;;;;;;16.57;91.95;101930.81;6159598;23;20019;-60
2023/08/16 05:28:31;;;;;;;7.07;4.88;;;;;;;16.53;91.82;101929.13;6183897;23;20035;-60
2023/08/16 05:31:09;;;;;;;6.63;4.95;;;;;;;16.63;92.67;101935.09;6160125;23;20009;-60
2023/08/16 05:33:56;;;;;;;6.70;4.90;;;;;;;16.67;92.06;101943.88;6174367;22;20398;-59
2023/08/16 05:36:39;;;;;;;14.77;5.20;;;;;;;16.66;92.02;101937.69;6122012;23;20029;31
2023/08/16 05:39:09;;;;;;;8.55;4.47;;;;;;;16.61;90.68;101951.00;6178655;22;20143;-59
2023/08/16 05:41:36;;;;;;;7.07;5.00;;;;;;;16.69;91.53;101955.28;6171374;23;20406;-59
2023/08/16 05:44:02;;;;;;;11.73;5.28;;;;;;;16.65;90.39;101961.53;6139565;22;20037;-59
2023/08/16 05:46:28;;;;;;;6.85;4.57;;;;;;;16.64;91.04;101939.50;6164652;23;20025;-59
2023/08/16 05:48:53;;;;;;;8.63;4.90;;;;;;;16.76;90.97;101948.97;6163062;23;20321;-59
2023/08/16 05:54:01;;;;;;;6.18;4.90;;;;;;;16.75;91.27;101937.53;6215847;22;20035;-59
2023/08/16 05:56:27;;;;;;;8.43;4.95;;;;;;;16.80;91.18;101943.56;6185463;23;20028;-59
2023/08/16 06:01:20;;;;;;;8.52;4.85;;;;;;;17.02;91.32;101958.19;6203853;22;20035;-59
2023/08/16 06:03:46;;;;;;;7.95;5.20;;;;;;;17.00;89.05;101962.66;6157638;23;20340;-59
2023/08/16 06:06:11;;;;;;;6.25;4.57;;;;;;;17.48;90.09;101954.53;6131151;23;20032;-59
2023/08/16 06:08:37;;;;;;;7.32;3.80;;;;;;;18.89;83.91;101949.19;6175157;22;20051;-58
2023/08/16 06:11:04;;;;;;;9.32;4.13;;;;;;;20.20;78.53;101960.16;6133420;22;20031;-59
2023/08/16 06:13:30;;;;;;;8.35;3.95;;;;;;;19.73;75.03;101968.78;6178716;23;20021;-59
2023/08/16 06:15:56;;;;;;;9.15;4.20;;;;;;;19.18;77.52;101971.38;6108935;23;20021;-58
2023/08/16 06:18:22;;;;;;;8.13;3.92;;;;;;;18.77;79.21;101960.13;6129697;23;20032;-59
2023/08/16 06:20:47;;;;;;;6.47;3.80;;;;;;;18.67;79.77;101986.94;6108234;23;20051;-59
2023/08/16 06:23:13;;;;;;;7.03;3.88;;;;;;;18.51;81.54;101981.16;6160398;23;20057;-59
2023/08/16 06:25:38;;;;;;;7.22;4.13;;;;;;;18.38;81.03;101978.91;6162685;23;20039;-58
2023/08/16 06:28:04;;;;;;;8.20;3.90;;;;;;;18.26;81.43;101974.75;6137008;23;20009;-58
2023/08/16 06:30:29;;;;;;;8.30;4.07;;;;;;;18.18;82.49;101964.38;6133207;23;20039;-59
2023/08/16 06:32:55;;;;;;;7.18;4.40;;;;;;;18.27;82.78;101966.75;6158806;23;20520;-59
2023/08/16 06:35:20;;;;;;;7.20;4.43;;;;;;;18.32;81.97;101966.66;6186381;23;20422;-59
2023/08/16 06:37:46;;;;;;;5.85;3.90;;;;;;;18.39;83.44;101970.91;6160404;23;20008;-59
2023/08/16 06:40:12;;;;;;;6.47;3.67;;;;;;;18.41;82.47;101968.19;6136498;23;20437;-58
2023/08/16 06:42:39;;;;;;;8.65;3.88;;;;;;;18.48;81.24;101975.94;6184640;23;20008;-59
2023/08/16 06:45:06;;;;;;;5.85;3.40;;;;;;;18.67;80.66;101963.03;6161105;23;20323;-59
2023/08/16 06:47:31;;;;;;;6.85;3.78;;;;;;;18.72;79.83;101964.69;6160602;23;20012;-61
2023/08/16 06:49:57;;;;;;;7.63;3.80;;;;;;;19.21;80.08;101958.00;6160618;23;20005;-61
2023/08/16 06:52:22;;;;;;;6.95;3.70;;;;;;;19.29;76.64;101955.97;6162488;23;20104;-61
2023/08/16 06:54:48;;;;;;;6.72;3.83;;;;;;;19.38;75.73;101958.34;6138223;23;20087;-61
2023/08/16 06:57:13;;;;;;;7.85;3.80;;;;;;;19.52;77.84;101963.25;6161450;23;20024;-62
2023/08/16 06:59:39;;;;;;;8.50;3.65;;;;;;;19.48;76.35;101971.34;6162465;23;20004;-61
2023/08/16 07:02:04;;;;;;;7.50;4.15;;;;;;;19.30;75.52;101971.00;6161552;23;20017;-61
2023/08/16 07:04:32;;;;;;;6.88;3.45;;;;;;;19.19;76.74;101966.03;6137904;23;20015;-61
2023/08/16 07:06:58;;;;;;;6.70;3.70;;;;;;;19.04;77.57;101967.34;6162528;23;20422;-61
2023/08/16 07:09:24;;;;;;;7.97;3.53;;;;;;;19.10;77.85;101976.06;6162580;23;20004;-61
2023/08/16 07:11:50;;;;;;;6.30;3.40;;;;;;;19.53;77.48;101978.25;6161747;23;20023;-61
2023/08/16 07:14:15;;;;;;;6.22;3.47;;;;;;;20.02;76.49;101986.47;6137772;23;20431;-61
2023/08/16 07:16:41;;;;;;;6.82;3.58;;;;;;;20.34;73.84;101981.88;6137987;23;20009;-61
2023/08/16 07:19:08;;;;;;;6.68;3.47;;;;;;;20.53;73.25;101983.84;6162241;23;20087;-61
2023/08/16 07:21:35;;;;;;;5.78;3.20;;;;;;;20.48;72.69;101978.72;6138136;23;20012;-61
2023/08/16 07:24:01;;;;;;;6.95;3.20;;;;;;;20.53;73.22;101987.41;6160943;23;20036;-61
2023/08/16 07:26:27;;;;;;;7.30;3.30;;;;;;;20.84;73.50;101985.47;6160202;23;20040;-61
2023/08/16 07:28:53;;;;;;;5.85;3.10;;;;;;;20.62;70.92;101986.22;6136615;23;20008;-62
2023/08/16 07:31:19;;;;;;;7.28;3.28;;;;;;;20.48;71.71;101985.84;6137914;23;20039;-61
2023/08/16 07:33:44;;;;;;;6.32;3.40;;;;;;;20.41;69.48;101979.84;6161843;23;20103;-61
2023/08/16 07:36:10;;;;;;;5.95;2.95;;;;;;;20.53;71.90;101984.75;6161662;23;20019;-62
2023/08/16 07:38:35;;;;;;;7.53;3.13;;;;;;;20.34;71.94;101984.53;6137421;23;20008;-61
2023/08/16 07:41:01;;;;;;;5.35;2.88;;;;;;;20.21;70.67;101986.75;6137507;23;20264;-61
2023/08/16 07:43:29;;;;;;;4.78;2.67;;;;;;;20.14;71.29;101990.53;6185431;23;20028;-61
2023/08/16 07:45:54;;;;;;;6.07;3.08;;;;;;;19.94;71.01;101996.53;6187168;23;20050;-61
2023/08/16 07:48:21;;;;;;;5.53;3.03;;;;;;;19.80;70.97;101990.78;6186957;23;20071;-61
2023/08/16 07:50:46;;;;;;;5.07;2.63;;;;;;;20.00;73.51;101996.31;6161829;23;20020;-62
2023/08/16 07:53:13;;;;;;;4.97;2.90;;;;;;;20.00;70.90;101998.13;6162139;23;20013;-61
2023/08/16 07:55:38;;;;;;;4.63;2.90;;;;;;;19.99;70.61;101997.22;6186434;23;20088;-61
2023/08/16 07:58:04;;;;;;;9.18;3.38;;;;;;;20.14;71.06;101994.97;6184876;23;20388;-63
2023/08/16 08:00:30;;;;;;;6.13;2.83;;;;;;;20.34;72.43;102008.50;6186541;23;20454;-61
2023/08/16 08:02:56;;;;;;;7.05;3.08;;;;;;;20.53;72.15;102005.16;6185903;23;20007;-61
2023/08/16 08:05:22;;;;;;;6.07;2.95;;;;;;;20.90;72.33;102012.75;6185810;23;20091;-61
2023/08/16 08:07:53;;;;;;;4.68;2.60;;;;;;;20.85;71.53;102017.38;6161610;23;20017;-61
2023/08/16 08:15:29;;;;;;;6.72;3.03;;;;;;;21.23;70.66;102008.88;6213384;23;20029;-59
2023/08/16 08:17:54;;;;;;;4.90;2.78;;;;;;;21.05;68.60;101994.47;6183462;23;20411;-59
2023/08/16 08:20:19;;;;;;;5.82;3.28;;;;;;;21.30;70.29;102005.03;6165594;23;20021;-59
2023/08/16 08:22:47;;;;;;;5.35;3.40;;;;;;;21.43;70.06;101998.34;6194548;23;20016;-59
2023/08/16 08:27:58;;;;;;;6.50;3.67;;;;;;;21.63;70.48;102015.34;6217637;22;20341;-57
2023/08/16 08:36:16;;;;;;;6.40;3.80;;;;;;;21.64;66.04;102009.09;6211548;23;20033;-59
2023/08/16 08:38:42;;;;;;;7.10;3.67;;;;;;;21.78;67.88;102016.56;6161892;23;20021;-60
2023/08/16 08:41:08;;;;;;;6.38;3.83;;;;;;;21.84;67.48;102015.41;6186958;23;20412;-60
2023/08/16 08:43:35;;;;;;;5.57;3.63;;;;;;;21.74;67.49;102021.13;6195349;23;20426;-60
2023/08/16 08:46:03;;;;;;;7.90;3.60;;;;;;;21.80;69.61;102015.53;6192153;23;20008;-60
2023/08/16 08:48:29;;;;;;;6.20;3.75;;;;;;;21.87;70.44;102015.31;6216590;23;20341;-60
2023/08/16 08:50:55;;;;;;;6.80;3.80;;;;;;;22.05;66.83;102017.22;6166542;23;20016;-60
2023/08/16 08:53:22;;;;;;;6.25;3.70;;;;;;;21.91;66.23;102016.91;6191818;23;20011;-60
2023/08/16 08:55:52;;;;;;;8.38;3.40;;;;;;;22.13;69.42;102023.09;6216568;23;20110;-60
2023/08/16 08:58:18;;;;;;;7.30;3.50;;;;;;;22.20;68.08;102023.72;6215938;23;20035;-59
2023/08/16 09:00:44;;;;;;;10.40;3.92;;;;;;;22.09;64.27;102025.97;6216740;23;20019;-59
2023/08/16 09:03:12;;;;;;;6.22;3.60;;;;;;;21.96;66.01;102030.94;6216644;22;20008;-60
2023/08/16 09:05:39;;;;;;;6.80;3.83;;;;;;;21.90;67.90;102025.88;6166715;23;20349;-59
2023/08/16 09:08:09;;;;;;;6.22;3.97;;;;;;;21.93;65.61;102031.06;6216596;23;20054;-59
2023/08/16 09:10:38;;;;;;;7.70;3.83;;;;;;;21.99;68.29;102028.13;6192434;23;20062;-60
2023/08/16 09:13:06;;;;;;;6.60;3.83;;;;;;;22.03;66.95;102031.56;6165175;22;20144;-60
2023/08/16 09:15:32;;;;;;;6.57;3.92;;;;;;;21.95;67.71;102029.19;6216218;23;20073;-60
2023/08/16 09:18:16;;;;;;;6.72;4.10;;;;;;;22.04;67.59;102026.16;6215330;23;20011;-60
2023/08/16 09:20:42;;;;;;;7.25;4.20;;;;;;;21.89;68.11;102024.13;6215205;23;20000;-59
2023/08/16 09:23:13;;;;;;;9.07;4.25;;;;;;;21.86;69.49;102025.09;6190344;22;20019;-60
2023/08/16 09:25:38;;;;;;;5.13;3.65;;;;;;;22.07;69.84;102018.03;6216419;23;20416;-60
2023/08/16 09:28:08;;;;;;;10.48;3.95;;;;;;;22.12;69.77;102024.06;6190654;23;20019;-60
2023/08/16 09:30:34;;;;;;;7.22;3.83;;;;;;;22.35;69.12;102024.03;6216404;23;20007;-60
2023/08/16 09:33:00;;;;;;;7.63;3.97;;;;;;;22.35;69.20;102027.56;6166080;22;20404;-59
2023/08/16 09:35:29;;;;;;;8.40;4.35;;;;;;;22.06;68.03;102026.09;6215767;23;20004;-60
2023/08/16 09:37:58;;;;;;;7.28;4.70;;;;;;;21.90;65.96;102031.19;6216001;23;20008;-60
2023/08/16 09:40:24;;;;;;;8.45;4.18;;;;;;;21.84;65.97;102029.66;6191535;23;20023;-60
2023/08/16 09:42:50;;;;;;;8.10;4.30;;;;;;;21.74;67.27;102025.63;6190616;22;20008;-60
2023/08/16 09:45:25;;;;;;;4.95;4.45;;;;;;;21.71;68.27;102031.94;6216510;23;20186;-59
2023/08/16 09:47:50;;;;;;;8.10;4.65;;;;;;;21.75;69.03;102017.56;6192951;23;20422;-59
2023/08/16 09:50:21;;;;;;;6.63;4.28;;;;;;;21.69;67.85;102022.25;6166818;23;20098;-59
2023/08/16 09:52:48;;;;;;;6.82;4.22;;;;;;;21.56;68.23;102022.72;6194315;23;20496;-59
2023/08/16 09:55:24;;;;;;;9.25;4.07;;;;;;;21.47;67.92;102031.06;6193219;23;20426;-59
2023/08/16 09:57:50;;;;;;;7.95;4.68;;;;;;;21.42;68.31;102031.25;6192456;23;20040;-59
2023/08/16 10:00:16;;;;;;;8.13;4.70;;;;;;;21.37;68.66;102030.53;6193215;23;20090;-59
2023/08/16 10:02:46;;;;;;;9.07;5.07;;;;;;;21.30;68.15;102026.38;6192818;23;20143;-59
2023/08/16 10:05:13;;;;;;;7.60;4.80;;;;;;;21.26;68.54;102024.75;6193009;23;20004;-59
2023/08/16 10:10:50;;;;;;;9.48;4.40;;;;;;;21.41;69.85;102018.84;6202732;22;20020;-59
2023/08/16 10:13:16;;;;;;;11.15;4.95;;;;;;;21.45;69.20;102015.13;6157663;23;20028;-59
2023/08/16 10:15:46;;;;;;;8.00;5.53;;;;;;;21.42;69.86;102023.25;6158232;23;20439;-59
2023/08/16 10:18:12;;;;;;;8.48;5.22;;;;;;;21.37;70.17;102017.22;6183285;23;20368;-59
2023/08/16 10:20:41;;;;;;;12.68;5.75;;;;;;;21.43;69.76;102021.44;6182953;23;20008;-59
2023/08/16 10:23:12;;;;;;;7.05;4.25;;;;;;;21.58;71.06;102022.69;6182718;23;20013;-59
2023/08/16 10:31:26;;;;;;;7.55;4.50;;;;;;;21.45;70.29;102020.47;6202675;23;20032;-59
2023/08/16 10:33:55;;;;;;;8.18;5.30;;;;;;;21.61;71.24;102017.22;6174951;23;20087;-59
2023/08/16 10:36:39;;;;;;;8.18;5.30;;;;;;;21.66;69.60;102012.56;6157150;23;20399;-59
2023/08/16 10:39:07;;;;;;;9.40;5.35;;;;;;;21.68;70.30;102013.38;6133331;23;20019;-59
2023/08/16 10:41:40;;;;;;;7.75;5.25;;;;;;;21.76;70.46;102015.75;6109965;23;20342;-59
2023/08/16 10:44:07;;;;;;;6.47;4.57;;;;;;;21.85;71.31;102012.72;6108655;23;20016;-59
2023/08/16 10:46:37;;;;;;;6.13;4.70;;;;;;;22.10;71.36;102012.56;6133571;23;20009;-59
2023/08/16 10:49:06;;;;;;;8.10;4.82;;;;;;;22.26;69.38;102011.91;6132775;23;20118;-59
2023/08/16 10:51:42;;;;;;;11.48;4.32;;;;;;;22.40;69.32;102014.03;6157143;23;20011;-58
2023/08/16 10:54:08;;;;;;;5.43;4.25;;;;;;;22.25;68.30;102021.72;6156861;23;20008;-59
2023/08/16 10:56:43;;;;;;;7.18;4.55;;;;;;;22.24;68.21;102014.66;6133041;23;20399;-59
2023/08/16 10:59:09;;;;;;;7.65;4.30;;;;;;;22.31;67.27;102010.78;6157393;23;20092;-59
2023/08/16 11:01:44;;;;;;;8.55;4.32;;;;;;;22.34;69.52;102003.59;6167657;23;20032;-59
2023/08/16 11:04:11;;;;;;;7.60;4.10;;;;;;;22.52;68.56;102008.16;6133460;23;20020;-59
2023/08/16 11:06:39;;;;;;;10.07;5.05;;;;;;;22.75;69.31;102015.16;6157171;23;20009;-59
2023/08/16 11:09:05;;;;;;;5.93;4.43;;;;;;;22.85;68.76;102010.25;6133025;23;20068;-59
2023/08/16 11:11:30;;;;;;;7.75;4.10;;;;;;;22.95;69.07;102008.91;6157955;23;20014;-60
2023/08/16 11:13:59;;;;;;;10.73;4.75;;;;;;;22.98;67.79;102007.91;6132902;23;20288;-60
2023/08/16 11:16:24;;;;;;;7.45;4.45;;;;;;;22.91;67.55;102009.13;6133395;23;20020;-59
2023/08/16 11:18:50;;;;;;;7.68;4.75;;;;;;;22.96;67.76;102004.44;6158280;23;20330;-59
2023/08/16 11:21:16;;;;;;;7.68;5.13;;;;;;;22.91;68.87;102003.78;6157695;23;20071;-59
2023/08/16 11:23:42;;;;;;;8.27;4.10;;;;;;;23.04;69.05;101999.59;6158000;23;20147;-59
2023/08/16 11:26:10;;;;;;;7.18;3.90;;;;;;;23.07;67.96;102003.94;6109091;23;20035;-60
2023/08/16 11:28:37;;;;;;;7.93;4.55;;;;;;;22.78;65.01;102003.47;6157209;23;20408;-59
2023/08/16 11:31:07;;;;;;;8.63;4.47;;;;;;;22.62;66.54;102001.47;6133349;23;20065;-59
2023/08/16 11:33:39;;;;;;;9.15;4.40;;;;;;;22.57;66.57;101995.47;6157192;23;20020;-59
2023/08/16 11:36:07;;;;;;;6.38;3.88;;;;;;;22.77;67.69;102002.59;6157269;23;20005;-60
2023/08/16 11:38:36;;;;;;;9.00;4.10;;;;;;;22.65;66.04;102000.47;6157240;23;20012;-59
2023/08/16 11:41:05;;;;;;;7.97;4.85;;;;;;;22.55;66.89;101997.31;6157641;23;20016;-59
2023/08/16 11:43:32;;;;;;;7.87;4.40;;;;;;;22.53;67.30;101995.66;6108042;23;20016;-59
2023/08/16 11:45:59;;;;;;;6.30;3.75;;;;;;;22.58;68.46;101996.31;6133134;23;20254;-59
2023/08/16 11:48:25;;;;;;;7.70;3.85;;;;;;;22.71;69.26;101993.97;6108753;23;20009;-59
2023/08/16 11:50:52;;;;;;;8.27;3.90;;;;;;;22.61;67.72;102004.19;6156494;23;20021;-59